createdAt,value
2018-08-02T00:00:20.960Z,23.22
2018-08-02T00:05:29.532Z,23.07
2018-08-02T00:08:07.579Z,22.99
2018-08-02T00:10:43.197Z,23.03
2018-08-02T00:13:17.644Z,23.00
2018-08-02T00:15:51.988Z,23.17
2018-08-02T00:18:27.769Z,23.12
2018-08-02T00:21:06.296Z,23.05
2018-08-02T00:23:40.948Z,23.00
2018-08-02T00:26:15.467Z,22.93
2018-08-02T00:28:49.981Z,22.94
2018-08-02T00:31:24.524Z,22.95
2018-08-02T00:33:59.277Z,22.88
2018-08-02T00:36:34.600Z,22.87
2018-08-02T00:39:11.508Z,22.78
2018-08-02T00:41:46.150Z,22.73
2018-08-02T00:44:20.865Z,22.61
2018-08-02T00:46:55.528Z,22.43
2018-08-02T00:49:30.318Z,22.45
2018-08-02T00:52:04.978Z,22.38
2018-08-02T00:54:39.655Z,22.32
2018-08-02T00:57:14.469Z,22.35
2018-08-02T00:59:50.306Z,22.45
2018-08-02T01:02:26.317Z,22.44
2018-08-02T01:05:01.444Z,22.40
2018-08-02T01:07:35.765Z,22.33
2018-08-02T01:10:10.091Z,22.39
2018-08-02T01:12:45.097Z,22.29
2018-08-02T01:15:19.611Z,22.27
2018-08-02T01:17:54.085Z,22.23
2018-08-02T01:20:28.917Z,22.22
2018-08-02T01:23:04.049Z,22.14
2018-08-02T01:25:38.449Z,22.04
2018-08-02T01:28:13.563Z,22.06
2018-08-02T01:30:47.951Z,21.99
2018-08-02T01:33:22.797Z,21.94
2018-08-02T01:35:57.113Z,21.94
2018-08-02T01:38:31.956Z,21.92
2018-08-02T01:41:06.851Z,21.76
2018-08-02T01:43:41.112Z,21.80
2018-08-02T01:46:15.673Z,21.81
2018-08-02T01:48:50.114Z,21.75
2018-08-02T01:51:25.057Z,21.75
2018-08-02T01:54:00.024Z,21.85
2018-08-02T01:56:34.364Z,21.89
2018-08-02T01:59:16.045Z,21.93
2018-08-02T02:01:50.868Z,21.98
2018-08-02T02:04:25.907Z,21.86
2018-08-02T02:07:00.845Z,21.84
2018-08-02T02:09:35.305Z,21.90
2018-08-02T02:12:10.379Z,21.85
2018-08-02T02:14:44.904Z,21.82
2018-08-02T02:17:19.813Z,21.65
2018-08-02T02:19:55.576Z,21.60
2018-08-02T02:22:30.333Z,21.59
2018-08-02T02:25:05.405Z,21.63
2018-08-02T02:27:40.020Z,21.63
2018-08-02T02:30:14.426Z,21.54
2018-08-02T02:32:49.184Z,21.53
2018-08-02T02:35:23.603Z,21.47
2018-08-02T02:37:57.909Z,21.54
2018-08-02T02:40:32.971Z,21.54
2018-08-02T02:43:07.472Z,21.58
2018-08-02T02:45:42.571Z,21.51
2018-08-02T02:48:17.209Z,21.54
2018-08-02T02:50:51.571Z,21.53
2018-08-02T02:53:25.947Z,21.47
2018-08-02T02:56:00.251Z,21.45
2018-08-02T02:58:35.040Z,21.33
2018-08-02T03:01:10.161Z,21.36
2018-08-02T03:03:50.615Z,21.43
2018-08-02T03:06:25.483Z,21.42
2018-08-02T03:08:59.887Z,21.44
2018-08-02T03:11:34.901Z,21.43
2018-08-02T03:14:09.552Z,21.33
2018-08-02T03:16:44.304Z,21.35
2018-08-02T03:19:18.800Z,21.38
2018-08-02T03:21:53.231Z,21.43
2018-08-02T03:24:28.827Z,21.44
2018-08-02T03:27:03.684Z,21.36
2018-08-02T03:29:38.415Z,21.37
2018-08-02T03:32:12.881Z,21.33
2018-08-02T03:34:47.415Z,21.44
2018-08-02T03:37:22.153Z,21.36
2018-08-02T03:39:56.724Z,21.26
2018-08-02T03:42:31.538Z,21.19
2018-08-02T03:45:05.996Z,21.20
2018-08-02T03:47:41.468Z,21.17
2018-08-02T03:50:15.884Z,21.09
2018-08-02T03:52:50.220Z,21.11
2018-08-02T03:55:24.668Z,21.10
2018-08-02T03:57:58.956Z,21.05
2018-08-02T04:00:33.441Z,20.95
2018-08-02T04:03:08.287Z,20.87
2018-08-02T04:05:43.072Z,20.95
2018-08-02T04:08:17.550Z,20.95
2018-08-02T04:10:52.119Z,20.95
2018-08-02T04:13:26.820Z,20.97
2018-08-02T04:16:01.352Z,20.96
2018-08-02T04:18:39.968Z,20.94
2018-08-02T04:21:14.763Z,20.96
2018-08-02T04:23:49.381Z,21.03
2018-08-02T04:26:23.844Z,21.05
2018-08-02T04:28:58.427Z,21.14
2018-08-02T04:31:33.458Z,21.06
2018-08-02T04:34:07.909Z,21.13
2018-08-02T04:36:42.694Z,21.09
2018-08-02T04:39:17.643Z,21.13
2018-08-02T04:41:52.105Z,21.16
2018-08-02T04:44:26.928Z,21.10
2018-08-02T04:47:01.497Z,21.09
2018-08-02T04:49:36.651Z,21.14
2018-08-02T04:52:11.731Z,21.11
2018-08-02T04:54:46.235Z,21.12
2018-08-02T04:57:21.121Z,21.08
2018-08-02T04:59:55.625Z,21.14
2018-08-02T05:02:30.587Z,21.18
2018-08-02T05:05:05.480Z,21.16
2018-08-02T05:07:39.860Z,21.26
2018-08-02T05:10:14.846Z,21.29
2018-08-02T05:12:49.423Z,21.32
2018-08-02T05:15:23.923Z,21.32
2018-08-02T05:17:58.360Z,21.32
2018-08-02T05:20:33.252Z,21.38
2018-08-02T05:23:07.940Z,21.39
2018-08-02T05:25:42.654Z,21.46
2018-08-02T05:28:17.940Z,21.52
2018-08-02T05:30:52.348Z,21.47
2018-08-02T05:33:26.788Z,21.56
2018-08-02T05:36:01.718Z,21.59
2018-08-02T05:38:36.092Z,21.65
2018-08-02T05:41:10.591Z,21.69
2018-08-02T05:43:45.422Z,21.79
2018-08-02T05:46:20.552Z,21.80
2018-08-02T05:48:55.526Z,21.90
2018-08-02T05:51:30.206Z,21.86
2018-08-02T05:54:05.646Z,21.93
2018-08-02T05:56:39.919Z,21.98
2018-08-02T05:59:14.272Z,22.08
2018-08-02T06:01:48.748Z,22.12
2018-08-02T06:04:23.064Z,22.23
2018-08-02T06:06:57.670Z,22.33
2018-08-02T06:09:32.060Z,22.36
2018-08-02T06:12:07.231Z,22.42
2018-08-02T06:14:41.968Z,22.48
2018-08-02T06:17:16.891Z,22.50
2018-08-02T06:19:51.220Z,22.51
2018-08-02T06:22:26.150Z,22.52
2018-08-02T06:25:00.942Z,22.58
2018-08-02T06:27:35.920Z,22.76
2018-08-02T06:30:10.533Z,22.87
2018-08-02T06:32:45.487Z,22.81
2018-08-02T06:35:20.594Z,22.86
2018-08-02T06:37:54.911Z,22.92
2018-08-02T06:40:29.977Z,23.10
2018-08-02T06:43:04.572Z,23.20
2018-08-02T06:45:40.322Z,23.16
2018-08-02T06:48:14.026Z,23.20
2018-08-02T06:50:48.597Z,23.29
2018-08-02T06:53:23.104Z,23.36
2018-08-02T06:55:58.017Z,23.45
2018-08-02T06:58:32.440Z,23.54
2018-08-02T07:01:07.474Z,23.57
2018-08-02T07:03:42.087Z,23.64
2018-08-02T07:06:18.048Z,23.68
2018-08-02T07:08:53.037Z,23.73
2018-08-02T07:11:27.844Z,23.86
2018-08-02T07:14:02.227Z,23.82
2018-08-02T07:16:36.577Z,24.03
2018-08-02T07:19:10.912Z,24.05
2018-08-02T07:21:45.798Z,24.03
2018-08-02T07:24:20.316Z,24.03
2018-08-02T07:26:55.249Z,24.23
2018-08-02T07:29:30.066Z,24.28
2018-08-02T07:32:04.821Z,24.41
2018-08-02T07:34:39.192Z,24.39
2018-08-02T07:37:14.006Z,24.47
2018-08-02T07:39:48.516Z,24.56
2018-08-02T07:42:22.963Z,24.60
2018-08-02T07:44:57.320Z,24.71
2018-08-02T07:47:31.623Z,24.70
2018-08-02T07:50:06.768Z,24.90
2018-08-02T07:52:41.468Z,25.17
2018-08-02T07:55:16.399Z,25.21
2018-08-02T07:57:51.183Z,25.34
2018-08-02T08:00:25.868Z,25.44
2018-08-02T08:03:00.817Z,25.31
2018-08-02T08:05:35.457Z,25.24
2018-08-02T08:08:10.132Z,25.21
2018-08-02T08:10:51.275Z,25.35
2018-08-02T08:13:25.968Z,25.54
2018-08-02T08:16:00.564Z,25.77
2018-08-02T08:18:35.233Z,25.70
2018-08-02T08:21:10.070Z,25.79
2018-08-02T08:23:44.870Z,25.85
2018-08-02T08:26:19.259Z,25.79
2018-08-02T08:28:53.763Z,25.89
2018-08-02T08:31:29.663Z,26.00
2018-08-02T08:34:04.523Z,25.84
2018-08-02T08:36:39.599Z,25.90
2018-08-02T08:39:14.241Z,26.10
2018-08-02T08:41:48.955Z,26.28
2018-08-02T08:44:23.471Z,26.50
2018-08-02T08:46:58.141Z,26.68
2018-08-02T08:49:45.136Z,26.85
2018-08-02T08:52:19.477Z,26.99
2018-08-02T08:54:54.597Z,26.99
2018-08-02T08:57:28.920Z,27.27
2018-08-02T09:00:03.460Z,27.66
2018-08-02T09:02:38.764Z,28.13
2018-08-02T09:05:14.421Z,28.45
2018-08-02T09:07:52.425Z,28.64
2018-08-02T09:10:27.882Z,28.84
2018-08-02T09:13:03.032Z,28.90
2018-08-02T09:15:37.628Z,29.14
2018-08-02T09:18:11.923Z,29.42
2018-08-02T09:20:46.744Z,29.50
2018-08-02T09:23:21.463Z,29.10
2018-08-02T09:25:56.232Z,29.19
2018-08-02T09:28:30.960Z,29.47
2018-08-02T09:31:05.427Z,29.54
2018-08-02T09:33:40.051Z,29.31
2018-08-02T09:36:14.688Z,29.42
2018-08-02T09:38:49.628Z,29.52
2018-08-02T09:41:31.277Z,29.67
2018-08-02T09:44:09.540Z,29.73
2018-08-02T09:46:44.289Z,29.46
2018-08-02T09:49:19.061Z,28.96
2018-08-02T09:51:53.684Z,29.11
2018-08-02T09:54:42.378Z,29.26
2018-08-02T09:57:19.832Z,29.46
2018-08-02T09:59:55.613Z,29.59
2018-08-02T10:02:42.647Z,30.00
2018-08-02T10:05:28.625Z,30.09
2018-08-02T10:08:06.348Z,29.84
2018-08-02T10:10:41.298Z,30.03
2018-08-02T10:13:16.225Z,29.92
2018-08-02T10:15:53.140Z,30.07
2018-08-02T10:18:28.552Z,30.39
2018-08-02T10:21:03.588Z,30.13
2018-08-02T10:23:38.841Z,30.13
2018-08-02T10:26:13.981Z,30.22
2018-08-02T10:28:51.148Z,30.13
2018-08-02T10:31:27.007Z,30.25
2018-08-02T10:34:01.765Z,30.49
2018-08-02T10:36:36.467Z,30.67
2018-08-02T10:39:12.645Z,30.60
2018-08-02T10:41:47.975Z,30.57
2018-08-02T10:44:22.966Z,30.73
2018-08-02T10:47:02.475Z,31.26
2018-08-02T10:49:37.445Z,31.32
2018-08-02T10:52:13.413Z,30.92
2018-08-02T10:54:48.933Z,31.07
2018-08-02T10:57:25.093Z,31.15
2018-08-02T11:00:00.060Z,31.36
2018-08-02T11:02:35.015Z,31.44
2018-08-02T11:05:09.504Z,31.64
2018-08-02T11:07:44.051Z,31.81
2018-08-02T11:10:18.535Z,32.08
2018-08-02T11:12:53.069Z,32.29
2018-08-02T11:15:28.275Z,31.97
2018-08-02T11:18:02.720Z,31.83
2018-08-02T11:20:37.776Z,32.08
2018-08-02T11:23:33.384Z,32.39
2018-08-02T11:26:07.713Z,32.68
2018-08-02T11:28:43.172Z,32.47
2018-08-02T11:31:18.500Z,32.51
2018-08-02T11:33:53.084Z,32.49
2018-08-02T11:36:27.793Z,32.59
2018-08-02T11:39:02.623Z,32.43
2018-08-02T11:41:41.033Z,32.64
2018-08-02T11:44:16.808Z,32.76
2018-08-02T11:46:52.883Z,33.10
2018-08-02T11:49:39.845Z,33.15
2018-08-02T11:52:18.997Z,33.26
2018-08-02T11:54:53.895Z,33.28
2018-08-02T11:57:28.532Z,33.15
2018-08-02T12:00:03.342Z,33.00
2018-08-02T12:03:09.189Z,32.94
2018-08-02T12:05:44.289Z,32.76
2018-08-02T12:08:19.127Z,32.93
2018-08-02T12:10:53.820Z,33.11
2018-08-02T12:13:28.316Z,33.06
2018-08-02T12:16:03.184Z,33.45
2018-08-02T12:18:38.018Z,33.17
2018-08-02T12:21:12.987Z,33.41
2018-08-02T12:23:48.466Z,33.41
2018-08-02T12:26:23.739Z,33.03
2018-08-02T12:28:58.196Z,33.15
2018-08-02T12:31:32.905Z,33.35
2018-08-02T12:34:07.583Z,33.49
2018-08-02T12:36:49.504Z,33.57
2018-08-02T12:39:24.161Z,33.78
2018-08-02T12:41:58.868Z,33.90
2018-08-02T12:44:33.259Z,33.77
2018-08-02T12:47:07.905Z,33.45
2018-08-02T12:49:43.040Z,33.71
2018-08-02T12:52:17.510Z,33.94
2018-08-02T12:54:52.407Z,34.14
2018-08-02T12:57:26.981Z,33.89
2018-08-02T13:00:01.666Z,33.83
2018-08-02T13:02:36.508Z,34.00
2018-08-02T13:05:11.397Z,34.14
2018-08-02T13:07:49.877Z,34.11
2018-08-02T13:10:24.514Z,34.41
2018-08-02T13:12:59.157Z,34.93
2018-08-02T13:15:34.465Z,35.03
2018-08-02T13:18:09.107Z,34.82
2018-08-02T13:20:43.494Z,34.80
2018-08-02T13:23:17.888Z,34.41
2018-08-02T13:25:52.804Z,34.34
2018-08-02T13:28:27.604Z,34.39
2018-08-02T13:31:02.384Z,34.86
2018-08-02T13:33:37.375Z,34.88
2018-08-02T13:36:18.242Z,35.33
2018-08-02T13:38:53.050Z,35.34
2018-08-02T13:41:27.442Z,34.95
2018-08-02T13:44:01.925Z,34.73
2018-08-02T13:46:36.692Z,34.34
2018-08-02T13:49:11.588Z,34.20
2018-08-02T13:51:52.040Z,34.22
2018-08-02T13:54:26.720Z,33.98
2018-08-02T13:57:01.402Z,34.08
2018-08-02T13:59:35.820Z,34.26
2018-08-02T14:02:16.222Z,34.22
2018-08-02T14:04:50.741Z,34.29
2018-08-02T14:07:35.722Z,34.30
2018-08-02T14:10:10.266Z,34.50
2018-08-02T14:12:50.410Z,34.39
2018-08-02T14:15:26.497Z,34.22
2018-08-02T14:18:00.951Z,34.20
2018-08-02T14:20:35.366Z,34.53
2018-08-02T14:23:10.618Z,34.46
2018-08-02T14:25:45.300Z,34.88
2018-08-02T14:28:20.867Z,35.04
2018-08-02T14:30:55.423Z,35.31
2018-08-02T14:33:30.679Z,35.23
2018-08-02T14:36:06.537Z,35.13
2018-08-02T14:38:41.492Z,35.05
2018-08-02T14:41:16.963Z,35.10
2018-08-02T14:43:52.298Z,35.40
2018-08-02T14:46:27.959Z,35.73
2018-08-02T14:49:03.131Z,35.17
2018-08-02T14:51:37.803Z,35.21
2018-08-02T14:54:13.089Z,35.42
2018-08-02T14:56:50.728Z,35.32
2018-08-02T14:59:29.158Z,35.23
2018-08-02T15:02:04.502Z,35.48
2018-08-02T15:04:39.487Z,35.63
2018-08-02T15:07:14.077Z,35.44
2018-08-02T15:09:49.000Z,35.06
2018-08-02T15:12:23.715Z,35.02
2018-08-02T15:14:59.019Z,34.84
2018-08-02T15:17:33.589Z,34.63
2018-08-02T15:20:08.362Z,34.64
2018-08-02T15:22:42.820Z,34.54
2018-08-02T15:25:17.497Z,34.76
2018-08-02T15:27:52.417Z,34.95
2018-08-02T15:30:26.937Z,34.89
2018-08-02T15:33:01.424Z,34.60
2018-08-02T15:35:36.252Z,34.40
2018-08-02T15:38:11.068Z,34.26
2018-08-02T15:40:45.580Z,33.66
2018-08-02T15:43:20.373Z,33.50
2018-08-02T15:45:55.416Z,33.31
2018-08-02T15:48:29.974Z,33.12
2018-08-02T15:54:06.513Z,32.95
2018-08-02T15:56:41.193Z,32.96
2018-08-02T15:59:16.228Z,32.84
2018-08-02T16:01:51.096Z,32.88
2018-08-02T16:04:35.769Z,32.83
2018-08-02T16:07:10.588Z,32.81
2018-08-02T16:09:46.482Z,32.73
2018-08-02T16:15:09.012Z,32.68
2018-08-02T16:17:45.031Z,32.73
2018-08-02T16:20:23.599Z,32.72
2018-08-02T16:22:58.814Z,32.53
2018-08-02T16:25:34.190Z,32.39
2018-08-02T16:28:08.878Z,32.40
2018-08-02T16:30:43.425Z,32.29
2018-08-02T16:33:19.632Z,32.28
2018-08-02T16:35:54.160Z,32.34
2018-08-02T16:38:29.636Z,32.34
2018-08-02T16:41:04.217Z,32.41
2018-08-02T16:43:38.816Z,32.27
2018-08-02T16:46:13.312Z,32.12
2018-08-02T16:48:48.092Z,31.94
2018-08-02T16:51:22.531Z,31.61
2018-08-02T16:53:57.563Z,31.43
2018-08-02T16:56:31.866Z,31.17
2018-08-02T16:59:06.892Z,31.02
2018-08-02T17:01:41.631Z,31.01
2018-08-02T17:04:17.508Z,30.96
2018-08-02T17:06:52.717Z,31.00
2018-08-02T17:09:28.369Z,30.99
2018-08-02T17:12:15.517Z,30.90
2018-08-02T17:14:54.522Z,30.97
2018-08-02T17:17:35.630Z,30.98
2018-08-02T17:20:17.184Z,30.82
2018-08-02T17:23:00.956Z,30.69
2018-08-02T17:25:35.763Z,30.45
2018-08-02T17:28:34.800Z,30.33
2018-08-02T17:31:09.581Z,30.18
2018-08-02T17:33:45.324Z,30.13
2018-08-02T17:36:25.979Z,29.94
2018-08-02T17:39:00.464Z,29.67
2018-08-02T17:41:35.216Z,29.34
2018-08-02T17:44:10.204Z,29.15
2018-08-02T17:46:44.600Z,29.06
2018-08-02T17:49:19.100Z,28.92
2018-08-02T17:51:54.096Z,28.80
2018-08-02T17:54:28.944Z,28.59
2018-08-02T17:57:03.402Z,28.63
2018-08-02T17:59:39.248Z,28.40
2018-08-02T18:02:16.408Z,28.19
2018-08-02T18:04:51.525Z,28.06
2018-08-02T18:07:26.818Z,28.04
2018-08-02T18:10:01.805Z,28.01
2018-08-02T18:12:36.572Z,27.86
2018-08-02T18:15:11.232Z,27.79
2018-08-02T18:17:45.625Z,27.77
2018-08-02T18:20:20.389Z,27.72
2018-08-02T18:22:55.261Z,27.49
2018-08-02T18:25:33.779Z,27.28
2018-08-02T18:28:09.312Z,27.10
2018-08-02T18:30:44.029Z,27.07
2018-08-02T18:33:19.052Z,27.07
2018-08-02T18:35:53.824Z,27.10
2018-08-02T18:38:30.045Z,27.02
2018-08-02T18:41:06.025Z,26.95
2018-08-02T18:43:40.657Z,27.00
2018-08-02T18:46:24.150Z,26.99
2018-08-02T18:48:59.869Z,26.96
2018-08-02T18:51:35.093Z,26.92
2018-08-02T18:54:19.755Z,26.93
2018-08-02T18:56:54.169Z,26.92
2018-08-02T18:59:33.301Z,27.11
2018-08-02T19:02:08.979Z,27.02
2018-08-02T19:04:43.996Z,26.98
2018-08-02T19:07:18.804Z,26.93
2018-08-02T19:09:55.497Z,26.83
2018-08-02T19:12:31.340Z,26.79
2018-08-02T19:15:07.881Z,26.75
2018-08-02T19:17:42.268Z,26.69
2018-08-02T19:20:16.890Z,26.59
2018-08-02T19:22:51.838Z,26.48
2018-08-02T19:25:27.001Z,26.38
2018-08-02T19:28:02.004Z,26.19
2018-08-02T19:30:36.986Z,26.13
2018-08-02T19:33:11.443Z,26.08
2018-08-02T19:35:46.715Z,26.02
2018-08-02T19:38:21.141Z,25.99
2018-08-02T19:40:55.656Z,25.93
2018-08-02T19:43:30.576Z,25.96
2018-08-02T19:46:06.195Z,25.95
2018-08-02T19:48:41.765Z,25.93
2018-08-02T19:51:18.216Z,25.87
2018-08-02T19:54:09.999Z,25.72
2018-08-02T19:56:49.836Z,25.57
2018-08-02T19:59:31.253Z,25.45
2018-08-02T20:02:05.926Z,25.41
2018-08-02T20:04:52.436Z,25.38
2018-08-02T20:07:33.196Z,25.40
2018-08-02T20:10:12.931Z,25.35
2018-08-02T20:12:54.554Z,25.19
2018-08-02T20:15:29.121Z,25.08
2018-08-02T20:18:03.922Z,25.08
2018-08-02T20:20:38.712Z,25.03
2018-08-02T20:23:30.477Z,25.12
2018-08-02T20:26:04.972Z,25.03
2018-08-02T20:28:56.769Z,24.95
2018-08-02T20:31:32.319Z,24.91
2018-08-02T20:34:25.773Z,24.89
2018-08-02T20:37:13.489Z,24.85
2018-08-02T20:43:00.219Z,24.76
2018-08-02T20:45:35.501Z,24.70
2018-08-02T20:48:10.078Z,24.66
2018-08-02T20:50:46.206Z,24.68
2018-08-02T20:53:33.557Z,24.66
2018-08-02T20:56:08.093Z,24.64
2018-08-02T20:58:42.632Z,24.62
2018-08-02T21:01:19.337Z,24.65
2018-08-02T21:04:00.272Z,24.67
2018-08-02T21:06:35.514Z,24.61
2018-08-02T21:09:10.633Z,24.49
2018-08-02T21:11:46.092Z,24.39
2018-08-02T21:14:21.213Z,24.38
2018-08-02T21:16:56.597Z,24.38
2018-08-02T21:19:31.211Z,24.39
2018-08-02T21:22:06.068Z,24.45
2018-08-02T21:24:41.402Z,24.41
2018-08-02T21:27:16.252Z,24.36
2018-08-02T21:29:51.480Z,24.34
2018-08-02T21:32:25.900Z,24.29
2018-08-02T21:35:00.406Z,24.22
2018-08-02T21:37:35.158Z,24.10
2018-08-02T21:40:10.213Z,24.05
2018-08-02T21:46:24.614Z,24.05
2018-08-02T21:51:59.203Z,24.08
2018-08-02T21:54:33.607Z,24.04
2018-08-02T21:57:08.138Z,24.03
2018-08-02T21:59:42.869Z,24.02
2018-08-02T22:02:17.534Z,24.00
2018-08-02T22:04:52.882Z,23.97
2018-08-02T22:07:28.665Z,23.96
2018-08-02T22:10:04.146Z,23.99
2018-08-02T22:12:49.886Z,23.98
2018-08-02T22:15:30.119Z,23.92
2018-08-02T22:18:05.087Z,23.79
2018-08-02T22:20:39.790Z,23.72
2018-08-02T22:23:14.281Z,23.64
2018-08-02T22:25:48.678Z,23.58
2018-08-02T22:28:23.066Z,23.47
2018-08-02T22:30:58.195Z,23.40
2018-08-02T22:33:33.006Z,23.49
2018-08-02T22:36:07.563Z,23.55
2018-08-02T22:38:42.395Z,23.51
2018-08-02T22:41:17.049Z,23.47
2018-08-02T22:43:51.645Z,23.50
2018-08-02T22:46:27.026Z,23.51
2018-08-02T22:49:01.904Z,23.40
2018-08-02T22:51:37.110Z,23.31
2018-08-02T22:54:12.055Z,23.28
2018-08-02T22:56:46.586Z,23.22
2018-08-02T22:59:21.010Z,23.18
2018-08-02T23:01:55.581Z,23.16
2018-08-02T23:04:30.016Z,23.14
2018-08-02T23:07:06.238Z,23.18
2018-08-02T23:09:40.797Z,23.32
2018-08-02T23:12:15.849Z,23.34
2018-08-02T23:14:50.353Z,23.39
2018-08-02T23:17:24.930Z,23.42
2018-08-02T23:19:59.584Z,23.35
2018-08-02T23:22:34.673Z,23.21
2018-08-02T23:25:09.363Z,22.94
2018-08-02T23:27:44.219Z,22.72
2018-08-02T23:30:19.241Z,22.67
2018-08-02T23:32:53.755Z,22.72
2018-08-02T23:35:28.464Z,22.75
2018-08-02T23:38:02.946Z,22.73
2018-08-02T23:40:38.141Z,22.74
2018-08-02T23:43:14.495Z,22.80
2018-08-02T23:45:52.795Z,22.84
2018-08-02T23:48:29.388Z,22.83
2018-08-02T23:51:04.220Z,22.91
2018-08-02T23:53:38.788Z,22.86
2018-08-02T23:56:13.613Z,22.96
2018-08-02T23:58:48.097Z,22.92
